Time;durP1;ratioP1;P1;durP2;ratioP2;P2;SDS_P1;SDS_P2;PMS_P1;PMS_P2;Temp;Humidity;BMP_temperature;BMP_pressure;BME280_temperature;BME280_humidity;BME280_pressure;Samples;Min_cycle;Max_cycle;Signal;HPM_P1;HPM_P2
2022/09/17 00:01:48;;;;;;;15.13;4.93;;;;;;;;;;5031281;28;20041;-66
2022/09/17 00:04:14;;;;;;;11.60;4.95;;;;;;;;;;5021764;28;20109;-66
2022/09/17 00:06:41;;;;;;;11.85;4.40;;;;;;;;;;5027615;28;20859;-66
2022/09/17 00:09:07;;;;;;;12.50;4.38;;;;;;;;;;5026245;28;20455;-66
2022/09/17 00:11:35;;;;;;;11.80;4.55;;;;;;;;;;5030295;28;20572;-66
2022/09/17 00:14:02;;;;;;;13.10;4.82;;;;;;;;;;5027852;28;20052;-67
2022/09/17 00:16:32;;;;;;;14.43;4.55;;;;;;;;;;5026213;28;20110;-66
2022/09/17 00:18:58;;;;;;;13.63;4.30;;;;;;;;;;5024262;28;20032;-66
2022/09/17 00:21:25;;;;;;;13.43;4.75;;;;;;;;;;5012729;28;20117;-66
2022/09/17 00:23:55;;;;;;;12.38;4.22;;;;;;;;;;5029751;28;20103;-66
2022/09/17 00:26:22;;;;;;;13.63;4.32;;;;;;;;;;5021932;28;20475;-66
2022/09/17 00:28:52;;;;;;;11.45;4.05;;;;;;;;;;5026873;28;20075;-66
2022/09/17 00:31:19;;;;;;;14.38;4.65;;;;;;;;;;5029423;28;20089;-67
2022/09/17 00:33:45;;;;;;;11.75;4.30;;;;;;;;;;5009726;28;20029;-66
2022/09/17 00:36:11;;;;;;;15.18;4.68;;;;;;;;;;5026036;28;20032;-66
2022/09/17 00:38:37;;;;;;;13.68;4.80;;;;;;;;;;5033092;28;20112;-66
2022/09/17 00:41:04;;;;;;;14.18;4.20;;;;;;;;;;5028141;28;20164;-66
2022/09/17 00:43:49;;;;;;;13.63;4.18;;;;;;;;;;5026858;28;20422;-66
2022/09/17 00:46:18;;;;;;;15.77;4.00;;;;;;;;;;5032139;28;20510;-66
2022/09/17 00:48:45;;;;;;;12.05;4.05;;;;;;;;;;5034945;28;20531;-67
2022/09/17 00:51:12;;;;;;;12.60;4.03;;;;;;;;;;5029855;28;20055;-68
2022/09/17 00:53:39;;;;;;;12.70;3.92;;;;;;;;;;5031807;28;20033;-66
2022/09/17 00:56:09;;;;;;;11.55;3.90;;;;;;;;;;5011105;28;20116;-66
2022/09/17 00:58:36;;;;;;;11.38;4.20;;;;;;;;;;5036211;28;20032;-66
2022/09/17 01:01:03;;;;;;;12.43;3.60;;;;;;;;;;5034448;28;20058;-66
2022/09/17 01:03:29;;;;;;;13.27;4.32;;;;;;;;;;5016180;28;20597;-65
2022/09/17 01:06:07;;;;;;;13.70;4.07;;;;;;;;;;5031710;28;20497;-68
2022/09/17 01:08:37;;;;;;;11.85;3.97;;;;;;;;;;5033243;28;20033;-67
2022/09/17 01:11:12;;;;;;;12.75;4.13;;;;;;;;;;5006542;28;20554;-67
2022/09/17 01:13:38;;;;;;;12.93;3.83;;;;;;;;;;5017623;28;20467;-67
2022/09/17 01:16:04;;;;;;;;;;;;;;;;;;5027988;28;20056;-67
2022/09/17 01:18:48;;;;;;;12.55;3.75;;;;;;;;;;5016460;28;20786;-68
2022/09/17 01:21:30;;;;;;;13.27;3.83;;;;;;;;;;5028877;28;20167;-68
2022/09/17 01:24:06;;;;;;;12.05;3.67;;;;;;;;;;5014584;28;20040;-67
2022/09/17 01:26:47;;;;;;;10.87;3.47;;;;;;;;;;5028647;28;20035;-68
2022/09/17 01:29:32;;;;;;;13.50;3.60;;;;;;;;;;5027918;28;20048;-67
2022/09/17 01:31:58;;;;;;;9.80;3.20;;;;;;;;;;5030230;28;20439;-68
2022/09/17 01:34:30;;;;;;;11.95;3.40;;;;;;;;;;5023135;28;20399;-67
2022/09/17 01:37:00;;;;;;;11.20;3.53;;;;;;;;;;5031050;28;20057;-67
2022/09/17 01:39:45;;;;;;;11.38;3.33;;;;;;;;;;5028047;28;20434;-67
2022/09/17 01:42:16;;;;;;;9.52;2.97;;;;;;;;;;5028374;28;20031;-67
2022/09/17 01:45:21;;;;;;;11.80;3.25;;;;;;;;;;5014277;28;20068;-67
2022/09/17 01:47:53;;;;;;;11.13;2.88;;;;;;;;;;4967555;28;20030;-67
2022/09/17 01:50:24;;;;;;;10.60;3.28;;;;;;;;;;4962601;28;20034;-67
2022/09/17 01:52:52;;;;;;;10.38;3.38;;;;;;;;;;4968456;28;20044;-67
2022/09/17 01:55:19;;;;;;;13.15;3.75;;;;;;;;;;4963177;28;20152;-67
2022/09/17 01:57:52;;;;;;;10.90;3.42;;;;;;;;;;4970454;28;20065;-67
2022/09/17 02:00:19;;;;;;;10.85;3.53;;;;;;;;;;4969552;28;20051;-67
2022/09/17 02:03:00;;;;;;;12.13;3.63;;;;;;;;;;4970110;28;20108;-67
2022/09/17 02:05:35;;;;;;;11.27;3.50;;;;;;;;;;4969637;28;20149;-67
2022/09/17 02:08:13;;;;;;;13.95;3.33;;;;;;;;;;4952782;28;20128;-67
2022/09/17 02:10:51;;;;;;;12.32;3.38;;;;;;;;;;4970014;28;20097;-67
2022/09/17 02:13:22;;;;;;;12.32;3.47;;;;;;;;;;4969016;28;22520;-67
2022/09/17 02:15:55;;;;;;;13.23;3.80;;;;;;;;;;4955883;28;20089;-67
2022/09/17 02:18:36;;;;;;;12.30;3.63;;;;;;;;;;4973255;28;20615;-67
2022/09/17 02:21:08;;;;;;;11.00;3.88;;;;;;;;;;5005807;28;20124;-67
2022/09/17 02:23:36;;;;;;;12.85;3.80;;;;;;;;;;5014057;28;20041;-67
2022/09/17 02:26:15;;;;;;;11.20;3.75;;;;;;;;;;5005674;28;20411;-67
2022/09/17 02:28:43;;;;;;;9.95;3.38;;;;;;;;;;5009733;28;20091;-67
2022/09/17 02:31:10;;;;;;;9.68;3.17;;;;;;;;;;5006849;28;20038;-67
2022/09/17 02:33:38;;;;;;;8.50;3.22;;;;;;;;;;5010505;28;20025;-67
2022/09/17 02:36:04;;;;;;;10.65;3.13;;;;;;;;;;5006101;28;20032;-67
2022/09/17 02:38:30;;;;;;;9.15;2.83;;;;;;;;;;5007661;28;20092;-67
2022/09/17 02:41:02;;;;;;;11.13;3.22;;;;;;;;;;5019044;28;20041;-67
2022/09/17 02:43:48;;;;;;;10.10;3.38;;;;;;;;;;5012625;28;20028;-67
2022/09/17 02:46:42;;;;;;;9.82;3.17;;;;;;;;;;5015298;28;20069;-67
2022/09/17 02:49:27;;;;;;;8.38;2.72;;;;;;;;;;5008797;28;20025;-67
2022/09/17 02:51:56;;;;;;;8.85;2.70;;;;;;;;;;5011925;28;20144;-67
2022/09/17 02:54:22;;;;;;;11.93;2.95;;;;;;;;;;4999304;28;20029;-67
2022/09/17 02:56:50;;;;;;;;;;;;;;;;;;5020533;28;20098;-67
2022/09/17 02:59:23;;;;;;;7.70;2.38;;;;;;;;;;5015043;28;19913;-67
2022/09/17 03:01:52;;;;;;;8.90;2.58;;;;;;;;;;5020962;28;20144;-67
2022/09/17 03:04:19;;;;;;;10.73;2.42;;;;;;;;;;5030719;28;20548;-67
2022/09/17 03:06:46;;;;;;;10.13;2.60;;;;;;;;;;5033948;28;20165;-67
2022/09/17 03:09:13;;;;;;;12.32;2.70;;;;;;;;;;5014232;28;20039;-67
2022/09/17 03:11:40;;;;;;;9.70;2.70;;;;;;;;;;5038337;28;20052;-66
2022/09/17 03:14:06;;;;;;;15.77;3.13;;;;;;;;;;5028288;28;20025;-67
2022/09/17 03:16:32;;;;;;;13.25;2.60;;;;;;;;;;5016180;28;20052;-66
2022/09/17 03:18:58;;;;;;;12.63;2.83;;;;;;;;;;5016112;28;20070;-66
2022/09/17 03:21:25;;;;;;;;;;;;;;;;;;5038682;28;20028;-67
2022/09/17 03:23:51;;;;;;;15.45;2.75;;;;;;;;;;5019258;28;20240;-66
2022/09/17 03:26:18;;;;;;;11.70;2.70;;;;;;;;;;5033755;28;20047;-65
2022/09/17 03:28:44;;;;;;;10.02;2.17;;;;;;;;;;5038196;28;20218;-65
2022/09/17 03:31:10;;;;;;;;;;;;;;;;;;5035025;28;20163;-65
2022/09/17 03:33:36;;;;;;;7.95;1.98;;;;;;;;;;5033770;28;19916;-65
2022/09/17 03:36:02;;;;;;;;;;;;;;;;;;5014659;28;20036;-65
2022/09/17 03:38:28;;;;;;;5.63;1.50;;;;;;;;;;5034065;28;19912;-65
2022/09/17 03:40:58;;;;;;;6.22;1.20;;;;;;;;;;5020416;28;20379;-64
2022/09/17 03:43:24;;;;;;;6.47;1.50;;;;;;;;;;5035196;28;20024;-65
2022/09/17 03:45:50;;;;;;;3.70;1.00;;;;;;;;;;5037121;28;20364;-65
2022/09/17 03:48:16;;;;;;;;;;;;;;;;;;5033771;28;20111;-65
2022/09/17 03:50:43;;;;;;;4.32;1.02;;;;;;;;;;5036627;28;19912;-65
2022/09/17 03:53:10;;;;;;;4.15;1.10;;;;;;;;;;5033769;28;20033;-65
2022/09/17 03:55:37;;;;;;;6.25;1.35;;;;;;;;;;5035509;28;20540;-65
2022/09/17 03:58:04;;;;;;;7.00;1.60;;;;;;;;;;5030658;28;20522;-65
2022/09/17 04:00:35;;;;;;;6.32;1.70;;;;;;;;;;5036078;28;20033;-65
2022/09/17 04:03:02;;;;;;;5.72;1.60;;;;;;;;;;4996168;28;20111;-65
2022/09/17 04:05:28;;;;;;;4.93;1.30;;;;;;;;;;5016317;28;20439;-65
2022/09/17 04:07:54;;;;;;;;;;;;;;;;;;5014868;28;20037;-65
2022/09/17 04:10:20;;;;;;;6.25;1.67;;;;;;;;;;5007914;28;19924;-65
2022/09/17 04:12:46;;;;;;;;;;;;;;;;;;4997814;28;20484;-65
2022/09/17 04:15:12;;;;;;;7.80;1.77;;;;;;;;;;5012717;28;19919;-65
2022/09/17 04:17:38;;;;;;;;;;;;;;;;;;5016985;28;20043;-65
2022/09/17 04:20:05;;;;;;;7.55;1.90;;;;;;;;;;5008622;28;19913;-65
2022/09/17 04:22:31;;;;;;;7.90;1.80;;;;;;;;;;5014023;28;20384;-65
2022/09/17 04:24:57;;;;;;;9.05;1.95;;;;;;;;;;5017353;28;20432;-65
2022/09/17 04:27:23;;;;;;;;;;;;;;;;;;4994981;28;20645;-65
2022/09/17 04:29:49;;;;;;;8.98;2.17;;;;;;;;;;5017058;28;19921;-65
2022/09/17 04:32:15;;;;;;;;;;;;;;;;;;5011734;28;20025;-65
2022/09/17 04:34:42;;;;;;;8.23;2.42;;;;;;;;;;5011360;28;19940;-65
2022/09/17 04:37:07;;;;;;;;;;;;;;;;;;5006997;28;20124;-65
2022/09/17 04:39:34;;;;;;;11.13;2.65;;;;;;;;;;4995464;28;20275;-65
2022/09/17 04:42:00;;;;;;;11.63;2.50;;;;;;;;;;4993880;28;20071;-64
2022/09/17 04:44:26;;;;;;;7.75;2.20;;;;;;;;;;5016006;28;20112;-65
2022/09/17 04:46:53;;;;;;;;;;;;;;;;;;5013736;28;20041;-65
2022/09/17 04:49:19;;;;;;;9.87;2.20;;;;;;;;;;5014410;28;20454;-65
2022/09/17 04:51:45;;;;;;;;;;;;;;;;;;5014984;28;20029;-65
2022/09/17 04:54:11;;;;;;;8.85;2.40;;;;;;;;;;5011886;28;19951;-64
2022/09/17 04:56:37;;;;;;;8.05;2.22;;;;;;;;;;5008898;28;20021;-65
2022/09/17 04:59:03;;;;;;;;;;;;;;;;;;4990898;28;20033;-64
2022/09/17 05:01:29;;;;;;;9.88;2.45;;;;;;;;;;5013953;28;20223;-65
2022/09/17 05:03:55;;;;;;;9.07;2.75;;;;;;;;;;5032664;28;20425;-65
2022/09/17 05:06:21;;;;;;;;;;;;;;;;;;5033150;28;20854;-65
2022/09/17 05:08:47;;;;;;;10.85;2.40;;;;;;;;;;5033873;28;20182;-65
2022/09/17 05:11:13;;;;;;;10.00;2.35;;;;;;;;;;5028540;28;20468;-65
2022/09/17 05:13:39;;;;;;;;;;;;;;;;;;5014995;28;20025;-65
2022/09/17 05:16:05;;;;;;;9.10;2.63;;;;;;;;;;5028939;28;20258;-65
2022/09/17 05:18:31;;;;;;;10.07;2.35;;;;;;;;;;5034652;28;20685;-64
2022/09/17 05:20:57;;;;;;;;;;;;;;;;;;5029631;28;20075;-65
2022/09/17 05:23:23;;;;;;;8.07;2.13;;;;;;;;;;5033407;28;20043;-65
2022/09/17 05:25:51;;;;;;;10.57;2.50;;;;;;;;;;5033992;28;20033;-64
2022/09/17 05:28:17;;;;;;;7.97;2.65;;;;;;;;;;5030763;28;20040;-65
2022/09/17 05:30:43;;;;;;;;;;;;;;;;;;5036016;28;20052;-64
2022/09/17 05:33:10;;;;;;;10.85;2.40;;;;;;;;;;5028840;28;20451;-64
2022/09/17 05:35:36;;;;;;;12.10;2.45;;;;;;;;;;5011410;28;20072;-64
2022/09/17 05:38:02;;;;;;;;;;;;;;;;;;5032331;28;20033;-64
2022/09/17 05:40:28;;;;;;;9.73;2.47;;;;;;;;;;5031907;28;19913;-64
2022/09/17 05:43:01;;;;;;;8.88;2.22;;;;;;;;;;5014621;28;20041;-64
2022/09/17 05:45:28;;;;;;;9.05;2.63;;;;;;;;;;5033860;28;20035;-64
2022/09/17 05:47:55;;;;;;;9.10;2.20;;;;;;;;;;5034276;28;20039;-64
2022/09/17 05:50:22;;;;;;;10.93;2.42;;;;;;;;;;5032153;28;20037;-64
2022/09/17 05:52:48;;;;;;;8.25;2.00;;;;;;;;;;5020018;28;20054;-64
2022/09/17 05:55:15;;;;;;;12.80;2.50;;;;;;;;;;5031057;28;20119;-65
2022/09/17 05:57:41;;;;;;;8.77;2.25;;;;;;;;;;5035736;28;20089;-64
2022/09/17 06:00:07;;;;;;;;;;;;;;;;;;5010899;28;20580;-65
2022/09/17 06:02:33;;;;;;;9.10;2.17;;;;;;;;;;5032861;28;20022;-65
2022/09/17 06:05:00;;;;;;;;;;;;;;;;;;5032280;28;20028;-65
2022/09/17 06:07:27;;;;;;;10.43;2.10;;;;;;;;;;5013621;28;19909;-65
2022/09/17 06:09:53;;;;;;;7.18;2.00;;;;;;;;;;5033160;28;20769;-66
2022/09/17 06:12:19;;;;;;;9.50;2.40;;;;;;;;;;5026063;28;20632;-65
2022/09/17 06:14:45;;;;;;;;;;;;;;;;;;5035390;28;20381;-65
2022/09/17 06:17:11;;;;;;;11.27;2.42;;;;;;;;;;5028013;28;20283;-65
2022/09/17 06:19:37;;;;;;;8.35;2.05;;;;;;;;;;5035796;28;20120;-65
2022/09/17 06:22:04;;;;;;;;;;;;;;;;;;5032543;28;20383;-65
2022/09/17 06:24:30;;;;;;;;;;;;;;;;;;5034477;28;20480;-67
2022/09/17 06:26:56;;;;;;;11.82;2.20;;;;;;;;;;5030299;28;20408;-65
2022/09/17 06:29:22;;;;;;;;;;;;;;;;;;5027497;28;20037;-64
2022/09/17 06:31:48;;;;;;;7.80;2.40;;;;;;;;;;5029568;28;19917;-64
2022/09/17 06:34:15;;;;;;;9.20;2.50;;;;;;;;;;5024058;28;20072;-64
2022/09/17 06:36:41;;;;;;;10.25;2.60;;;;;;;;;;5031921;28;20021;-64
2022/09/17 06:39:07;;;;;;;;;;;;;;;;;;5032877;28;20032;-64
2022/09/17 06:41:33;;;;;;;10.85;2.63;;;;;;;;;;5035025;28;19912;-65
2022/09/17 06:44:00;;;;;;;9.27;2.22;;;;;;;;;;5029109;28;20280;-65
2022/09/17 06:46:26;;;;;;;8.40;2.05;;;;;;;;;;5030015;28;20374;-65
2022/09/17 06:48:52;;;;;;;10.00;2.38;;;;;;;;;;5034172;28;20063;-65
2022/09/17 06:51:18;;;;;;;10.02;2.60;;;;;;;;;;5009524;28;20032;-65
2022/09/17 06:53:45;;;;;;;9.55;2.47;;;;;;;;;;5031288;28;20111;-65
2022/09/17 06:56:11;;;;;;;9.15;2.50;;;;;;;;;;5012278;28;20035;-65
2022/09/17 06:58:40;;;;;;;10.02;2.63;;;;;;;;;;5014210;28;20056;-65
2022/09/17 07:01:06;;;;;;;9.32;2.35;;;;;;;;;;5028782;28;20106;-65
2022/09/17 07:03:33;;;;;;;8.82;2.17;;;;;;;;;;5034448;28;20499;-65
2022/09/17 07:05:59;;;;;;;12.35;2.22;;;;;;;;;;5032240;28;20033;-65
2022/09/17 07:08:25;;;;;;;11.02;2.80;;;;;;;;;;5013058;28;20025;-65
2022/09/17 07:10:54;;;;;;;12.43;2.60;;;;;;;;;;5030914;28;20040;-65
2022/09/17 07:13:21;;;;;;;11.65;2.65;;;;;;;;;;5023102;28;20103;-64
2022/09/17 07:15:54;;;;;;;12.63;2.75;;;;;;;;;;5031208;28;20112;-66
2022/09/17 07:18:21;;;;;;;16.73;3.55;;;;;;;;;;5031908;28;20036;-66
2022/09/17 07:20:52;;;;;;;11.43;3.20;;;;;;;;;;5014456;28;20056;-65
2022/09/17 07:23:18;;;;;;;10.77;3.10;;;;;;;;;;5020685;28;20033;-64
2022/09/17 07:25:45;;;;;;;9.90;2.97;;;;;;;;;;5034219;28;20135;-66
2022/09/17 07:28:11;;;;;;;9.68;3.05;;;;;;;;;;5032389;28;20021;-65
2022/09/17 07:30:37;;;;;;;11.65;3.08;;;;;;;;;;5036680;28;20037;-65
2022/09/17 07:33:03;;;;;;;12.10;3.08;;;;;;;;;;5031028;28;20025;-65
2022/09/17 07:35:29;;;;;;;11.35;3.08;;;;;;;;;;5035284;28;20451;-67
2022/09/17 07:37:55;;;;;;;12.93;2.95;;;;;;;;;;5032700;28;20497;-64
2022/09/17 07:40:21;;;;;;;12.25;3.10;;;;;;;;;;5015296;28;20090;-65
2022/09/17 07:42:47;;;;;;;11.93;3.35;;;;;;;;;;5030145;28;20024;-65
2022/09/17 07:45:13;;;;;;;16.75;3.60;;;;;;;;;;5002442;28;20049;-65
2022/09/17 07:47:40;;;;;;;10.95;3.35;;;;;;;;;;5031095;28;20028;-65
2022/09/17 07:50:07;;;;;;;15.82;3.47;;;;;;;;;;5030433;28;20037;-65
2022/09/17 07:52:33;;;;;;;11.85;3.42;;;;;;;;;;5040083;28;20497;-65
2022/09/17 07:54:59;;;;;;;13.57;3.88;;;;;;;;;;5032911;28;20051;-64
2022/09/17 07:57:25;;;;;;;12.60;3.80;;;;;;;;;;5013865;28;20125;-65
2022/09/17 07:59:51;;;;;;;17.13;4.35;;;;;;;;;;5037381;28;20138;-65
2022/09/17 08:02:18;;;;;;;14.73;4.30;;;;;;;;;;5026992;28;20045;-65
2022/09/17 08:04:44;;;;;;;15.00;4.15;;;;;;;;;;5033854;28;20082;-65
2022/09/17 08:07:12;;;;;;;13.90;4.15;;;;;;;;;;5030319;28;21467;-65
2022/09/17 08:09:38;;;;;;;17.23;4.93;;;;;;;;;;5034361;28;20140;-65
2022/09/17 08:12:04;;;;;;;15.50;4.10;;;;;;;;;;5013830;28;20029;-65
2022/09/17 08:14:30;;;;;;;16.35;4.07;;;;;;;;;;5038850;28;20025;-65
2022/09/17 08:16:57;;;;;;;15.02;3.40;;;;;;;;;;5016178;28;20722;-65
2022/09/17 08:19:23;;;;;;;13.00;3.30;;;;;;;;;;5017215;28;20032;-65
2022/09/17 08:21:49;;;;;;;18.27;4.20;;;;;;;;;;5034119;28;20064;-65
2022/09/17 08:24:15;;;;;;;14.18;3.40;;;;;;;;;;5031220;28;20152;-65
2022/09/17 08:26:41;;;;;;;11.95;3.70;;;;;;;;;;5032726;28;20586;-66
2022/09/17 08:29:07;;;;;;;19.55;4.43;;;;;;;;;;5031464;28;20028;-67
2022/09/17 08:31:33;;;;;;;16.83;3.95;;;;;;;;;;5035051;28;20470;-66
2022/09/17 08:34:00;;;;;;;13.82;3.63;;;;;;;;;;5005947;28;20028;-66
2022/09/17 08:36:26;;;;;;;14.68;3.97;;;;;;;;;;5031272;28;20020;-67
2022/09/17 08:38:57;;;;;;;14.00;3.92;;;;;;;;;;5008922;28;20425;-66
2022/09/17 08:41:32;;;;;;;19.73;5.03;;;;;;;;;;5004916;28;20047;-66
2022/09/17 08:44:05;;;;;;;20.52;5.00;;;;;;;;;;5026394;28;20087;-66
2022/09/17 08:46:49;;;;;;;17.88;4.70;;;;;;;;;;5029360;28;20487;-66
2022/09/17 08:49:34;;;;;;;15.85;4.35;;;;;;;;;;5031505;28;20045;-66
2022/09/17 08:52:05;;;;;;;14.93;4.10;;;;;;;;;;5022656;28;20020;-66
2022/09/17 08:54:50;;;;;;;15.02;4.03;;;;;;;;;;5027051;28;20544;-65
2022/09/17 08:57:28;;;;;;;17.55;4.35;;;;;;;;;;5021671;28;20188;-65
2022/09/17 09:00:12;;;;;;;14.65;4.28;;;;;;;;;;5027651;28;20040;-67
2022/09/17 09:02:44;;;;;;;14.73;4.35;;;;;;;;;;5026810;28;20068;-66
2022/09/17 09:05:32;;;;;;;14.15;4.05;;;;;;;;;;5006368;28;20376;-67
2022/09/17 09:08:05;;;;;;;18.98;4.80;;;;;;;;;;5022603;28;20035;-64
2022/09/17 09:10:36;;;;;;;18.40;4.65;;;;;;;;;;5026252;28;20117;-65
2022/09/17 09:13:04;;;;;;;17.02;4.68;;;;;;;;;;5004874;28;20057;-65
2022/09/17 09:15:37;;;;;;;16.30;4.10;;;;;;;;;;5030583;28;20033;-65
2022/09/17 09:18:12;;;;;;;18.42;4.88;;;;;;;;;;5026423;28;20033;-65
2022/09/17 09:20:45;;;;;;;16.13;5.20;;;;;;;;;;5032138;28;20106;-64
2022/09/17 09:23:28;;;;;;;17.58;4.72;;;;;;;;;;5021827;28;20053;-65
2022/09/17 09:26:02;;;;;;;19.10;4.85;;;;;;;;;;5008213;28;20570;-66
2022/09/17 09:28:42;;;;;;;22.20;4.53;;;;;;;;;;5006687;28;20029;-66
2022/09/17 09:31:32;;;;;;;15.05;4.50;;;;;;;;;;5021424;28;20079;-66
2022/09/17 09:34:00;;;;;;;15.35;4.40;;;;;;;;;;5006611;28;20118;-66
2022/09/17 09:36:28;;;;;;;19.42;4.15;;;;;;;;;;5028129;28;20175;-66
2022/09/17 09:39:23;;;;;;;17.25;4.40;;;;;;;;;;5028646;28;20029;-66
2022/09/17 09:41:55;;;;;;;15.80;4.47;;;;;;;;;;4984322;28;20120;-66
2022/09/17 09:44:23;;;;;;;16.58;4.10;;;;;;;;;;4987682;28;20582;-65
2022/09/17 09:47:11;;;;;;;15.80;4.13;;;;;;;;;;4990302;28;20388;-66
2022/09/17 09:49:56;;;;;;;16.23;4.00;;;;;;;;;;4983129;28;20492;-65
2022/09/17 09:52:35;;;;;;;15.57;4.28;;;;;;;;;;4985939;28;20471;-65
2022/09/17 09:55:13;;;;;;;11.68;3.30;;;;;;;;;;4982207;28;20524;-66
2022/09/17 09:57:50;;;;;;;12.00;3.90;;;;;;;;;;4987735;28;20116;-65
2022/09/17 10:00:28;;;;;;;18.38;3.53;;;;;;;;;;4984026;28;20034;-66
2022/09/17 10:03:00;;;;;;;15.20;4.13;;;;;;;;;;4982966;28;20312;-66
2022/09/17 10:05:27;;;;;;;20.08;4.78;;;;;;;;;;4983815;28;20508;-66
2022/09/17 10:07:53;;;;;;;17.65;4.57;;;;;;;;;;4983797;28;20037;-66
2022/09/17 10:10:19;;;;;;;16.80;4.65;;;;;;;;;;4968325;28;20152;-66
2022/09/17 10:12:46;;;;;;;13.13;3.67;;;;;;;;;;4987168;28;20299;-66
2022/09/17 10:15:38;;;;;;;13.27;3.70;;;;;;;;;;4964240;28;20138;-66
2022/09/17 10:18:12;;;;;;;14.13;3.85;;;;;;;;;;4976004;28;20594;-66
2022/09/17 10:20:52;;;;;;;15.02;4.03;;;;;;;;;;5018196;28;20033;-66
2022/09/17 10:23:19;;;;;;;15.45;3.60;;;;;;;;;;5015685;28;20722;-66
2022/09/17 10:25:46;;;;;;;12.13;3.60;;;;;;;;;;5031934;28;20693;-66
2022/09/17 10:28:33;;;;;;;12.75;3.85;;;;;;;;;;5009675;28;20123;-66
2022/09/17 10:31:11;;;;;;;14.35;3.95;;;;;;;;;;5027008;28;20039;-66
2022/09/17 10:33:39;;;;;;;16.42;3.75;;;;;;;;;;5007770;28;20536;-66
2022/09/17 10:36:07;;;;;;;16.75;3.83;;;;;;;;;;5021918;28;20033;-66
2022/09/17 10:38:35;;;;;;;17.10;4.45;;;;;;;;;;5025715;28;20017;-67
2022/09/17 10:41:07;;;;;;;13.95;4.03;;;;;;;;;;5023954;28;20552;-66
2022/09/17 10:43:33;;;;;;;15.20;4.13;;;;;;;;;;5027920;28;20029;-66
2022/09/17 10:46:00;;;;;;;17.23;4.50;;;;;;;;;;5024882;28;20033;-66
2022/09/17 10:48:28;;;;;;;14.57;3.72;;;;;;;;;;5013112;28;20598;-67
2022/09/17 10:50:55;;;;;;;13.95;3.90;;;;;;;;;;5010416;28;20559;-67
2022/09/17 10:53:22;;;;;;;11.63;3.42;;;;;;;;;;5008118;28;20025;-67
2022/09/17 10:56:06;;;;;;;15.45;4.00;;;;;;;;;;5026610;28;20029;-66
2022/09/17 10:58:48;;;;;;;13.68;3.97;;;;;;;;;;5024484;28;20053;-66
2022/09/17 11:01:23;;;;;;;15.65;3.90;;;;;;;;;;5011212;28;20215;-66
2022/09/17 11:03:58;;;;;;;17.15;4.68;;;;;;;;;;5007603;28;20068;-68
2022/09/17 11:06:43;;;;;;;14.85;4.40;;;;;;;;;;4991573;28;20566;-66
2022/09/17 11:09:22;;;;;;;17.10;4.30;;;;;;;;;;5004878;28;20519;-67
2022/09/17 11:11:51;;;;;;;16.45;3.70;;;;;;;;;;5008946;28;20031;-66
2022/09/17 11:14:17;;;;;;;13.68;4.55;;;;;;;;;;5004683;28;20125;-66
2022/09/17 11:16:46;;;;;;;15.52;3.90;;;;;;;;;;5008163;28;20033;-70
2022/09/17 11:19:31;;;;;;;14.65;3.58;;;;;;;;;;4985404;28;20142;-70
2022/09/17 11:22:05;;;;;;;13.27;3.88;;;;;;;;;;5009705;28;20280;-70
2022/09/17 11:24:32;;;;;;;18.52;3.63;;;;;;;;;;5011756;28;20120;-70
2022/09/17 11:26:58;;;;;;;21.98;8.43;;;;;;;;;;5005563;28;20057;-70
2022/09/17 11:29:24;;;;;;;34.67;16.90;;;;;;;;;;5007794;28;20455;-72
2022/09/17 11:31:56;;;;;;;26.23;14.82;;;;;;;;;;4992582;28;20030;-71
2022/09/17 11:34:25;;;;;;;21.80;10.13;;;;;;;;;;5005185;28;20029;-71
2022/09/17 11:37:11;;;;;;;23.23;9.48;;;;;;;;;;5007163;28;21547;-70
2022/09/17 11:39:37;;;;;;;16.48;6.30;;;;;;;;;;4990741;28;20033;-71
2022/09/17 11:42:06;;;;;;;16.80;4.82;;;;;;;;;;4985830;28;20144;-70
2022/09/17 11:44:37;;;;;;;15.60;5.38;;;;;;;;;;5007460;28;20270;-70
2022/09/17 11:47:13;;;;;;;14.85;4.63;;;;;;;;;;5004715;28;20025;-70
2022/09/17 11:49:44;;;;;;;17.37;4.77;;;;;;;;;;5006780;28;20830;-71
2022/09/17 11:52:18;;;;;;;14.98;4.60;;;;;;;;;;5005297;28;20029;-70
2022/09/17 11:54:47;;;;;;;16.75;4.45;;;;;;;;;;4988165;28;20468;-70
2022/09/17 11:57:16;;;;;;;15.45;4.50;;;;;;;;;;5005942;28;20060;-69
2022/09/17 12:00:01;;;;;;;16.73;4.00;;;;;;;;;;4989977;28;20073;-70
2022/09/17 12:02:36;;;;;;;20.48;3.90;;;;;;;;;;4990311;28;20049;-69
2022/09/17 12:05:09;;;;;;;15.38;3.72;;;;;;;;;;5025281;28;20111;-69
2022/09/17 12:07:38;;;;;;;18.20;3.83;;;;;;;;;;5026459;28;20029;-69
2022/09/17 12:10:28;;;;;;;16.05;4.15;;;;;;;;;;5025537;28;20959;-70
2022/09/17 12:13:03;;;;;;;17.27;4.40;;;;;;;;;;5029618;28;20029;-70
2022/09/17 12:15:31;;;;;;;16.25;4.18;;;;;;;;;;5028109;28;20314;-70
2022/09/17 12:18:00;;;;;;;16.17;4.38;;;;;;;;;;5028830;28;20486;-70
2022/09/17 12:20:35;;;;;;;16.67;4.03;;;;;;;;;;5009342;28;20040;-72
2022/09/17 12:23:05;;;;;;;12.68;3.38;;;;;;;;;;5025013;28;20059;-71
2022/09/17 12:25:33;;;;;;;15.40;4.00;;;;;;;;;;5010106;28;20541;-70
2022/09/17 12:28:03;;;;;;;12.65;3.70;;;;;;;;;;5009709;28;21060;-71
2022/09/17 12:30:31;;;;;;;19.23;4.32;;;;;;;;;;5031903;28;20640;-71
2022/09/17 12:33:13;;;;;;;19.30;4.38;;;;;;;;;;5007856;28;20065;-72
2022/09/17 12:35:40;;;;;;;14.98;3.90;;;;;;;;;;5028225;28;20021;-72
2022/09/17 12:38:11;;;;;;;13.60;3.33;;;;;;;;;;5004100;28;20433;-73
2022/09/17 12:41:09;;;;;;;15.32;3.67;;;;;;;;;;5009437;28;20036;-71
2022/09/17 12:43:48;;;;;;;19.40;3.60;;;;;;;;;;4952570;28;20370;-71
2022/09/17 12:46:23;;;;;;;13.10;3.40;;;;;;;;;;4967778;28;20249;-71
2022/09/17 12:48:53;;;;;;;16.95;3.50;;;;;;;;;;4964586;28;20188;-71
2022/09/17 12:51:24;;;;;;;16.75;4.07;;;;;;;;;;4960095;28;20112;-72
2022/09/17 12:53:53;;;;;;;16.90;3.95;;;;;;;;;;4963628;28;20055;-71
2022/09/17 12:56:26;;;;;;;11.77;3.42;;;;;;;;;;4943732;28;20048;-71
2022/09/17 12:58:58;;;;;;;14.73;3.75;;;;;;;;;;4963867;28;20157;-68
2022/09/17 13:01:30;;;;;;;13.20;3.55;;;;;;;;;;4963498;28;20564;-66
2022/09/17 13:04:12;;;;;;;12.15;3.50;;;;;;;;;;4966155;28;20221;-67
2022/09/17 13:06:44;;;;;;;13.73;3.50;;;;;;;;;;4963499;28;20049;-66
2022/09/17 13:09:25;;;;;;;15.60;3.60;;;;;;;;;;4961702;28;20675;-66
2022/09/17 13:12:02;;;;;;;14.10;3.67;;;;;;;;;;4963670;28;20048;-66
2022/09/17 13:14:34;;;;;;;15.13;3.55;;;;;;;;;;4963790;28;20013;-67
2022/09/17 13:17:04;;;;;;;11.75;3.30;;;;;;;;;;4960699;28;20046;-67
2022/09/17 13:19:51;;;;;;;14.77;3.42;;;;;;;;;;4998168;28;20044;-65
2022/09/17 13:22:22;;;;;;;13.13;3.47;;;;;;;;;;5023356;28;21011;-65
2022/09/17 13:25:01;;;;;;;17.38;3.53;;;;;;;;;;5026005;28;20090;-66
2022/09/17 13:27:28;;;;;;;14.65;3.33;;;;;;;;;;5026644;28;20389;-66
2022/09/17 13:29:54;;;;;;;13.25;3.55;;;;;;;;;;5024222;28;20033;-66
2022/09/17 13:32:37;;;;;;;15.30;3.45;;;;;;;;;;5006248;28;20577;-68
2022/09/17 13:35:09;;;;;;;13.75;3.60;;;;;;;;;;4995774;28;20074;-69
2022/09/17 13:37:38;;;;;;;12.75;3.20;;;;;;;;;;5026551;28;20463;-67
2022/09/17 13:40:06;;;;;;;15.02;3.70;;;;;;;;;;5025310;28;20374;-68
2022/09/17 13:42:46;;;;;;;15.75;3.28;;;;;;;;;;5010258;28;20040;-67
2022/09/17 13:45:16;;;;;;;12.68;3.20;;;;;;;;;;5002617;28;20087;-67
2022/09/17 13:48:02;;;;;;;16.38;3.85;;;;;;;;;;5023896;28;20040;-67
2022/09/17 13:50:33;;;;;;;15.45;3.60;;;;;;;;;;5001367;28;20032;-67
2022/09/17 13:53:23;;;;;;;13.80;3.88;;;;;;;;;;5005490;28;20623;-67
2022/09/17 13:55:51;;;;;;;14.02;3.80;;;;;;;;;;5003745;28;20443;-67
2022/09/17 13:58:20;;;;;;;14.30;3.22;;;;;;;;;;5002079;28;20044;-67
2022/09/17 14:00:49;;;;;;;11.65;3.15;;;;;;;;;;5024756;28;20025;-67
2022/09/17 14:03:35;;;;;;;13.05;3.30;;;;;;;;;;5022383;28;20139;-67
2022/09/17 14:06:01;;;;;;;;;;;;;;;;;;5022754;28;20017;-67
2022/09/17 14:08:48;;;;;;;14.77;3.78;;;;;;;;;;5026818;28;19920;-67
2022/09/17 14:11:31;;;;;;;16.58;3.80;;;;;;;;;;5023015;28;20046;-67
2022/09/17 14:13:57;;;;;;;10.55;3.40;;;;;;;;;;5006985;28;20034;-67
2022/09/17 14:16:41;;;;;;;15.25;3.22;;;;;;;;;;5026665;28;20316;-67
2022/09/17 14:19:21;;;;;;;14.75;3.28;;;;;;;;;;5001064;28;20037;-67
2022/09/17 14:22:06;;;;;;;14.25;3.58;;;;;;;;;;5023035;28;20065;-67
2022/09/17 14:24:32;;;;;;;13.45;3.55;;;;;;;;;;5025329;28;20043;-65
2022/09/17 14:26:58;;;;;;;13.48;3.78;;;;;;;;;;5027145;28;20029;-66
2022/09/17 14:29:33;;;;;;;14.82;4.05;;;;;;;;;;5029383;28;20860;-66
2022/09/17 14:31:59;;;;;;;15.98;4.18;;;;;;;;;;5021422;28;20130;-66
2022/09/17 14:34:26;;;;;;;12.57;3.97;;;;;;;;;;5022288;28;20048;-65
2022/09/17 14:36:53;;;;;;;12.35;4.00;;;;;;;;;;5024484;28;20449;-66
2022/09/17 14:39:24;;;;;;;13.88;3.60;;;;;;;;;;5025020;28;20040;-65
2022/09/17 14:41:52;;;;;;;13.18;4.55;;;;;;;;;;5027952;28;20037;-66
2022/09/17 14:44:19;;;;;;;12.82;3.50;;;;;;;;;;5022656;28;20036;-65
2022/09/17 14:46:54;;;;;;;12.52;3.60;;;;;;;;;;5028581;28;20052;-65
2022/09/17 14:49:21;;;;;;;;;;;;;;;;;;5022551;28;20114;-65
2022/09/17 14:51:47;;;;;;;13.13;3.75;;;;;;;;;;5025018;28;19917;-65
2022/09/17 14:54:13;;;;;;;13.10;3.42;;;;;;;;;;5026433;28;20040;-65
2022/09/17 14:56:46;;;;;;;15.00;3.15;;;;;;;;;;5029669;28;20104;-67
2022/09/17 14:59:19;;;;;;;12.93;3.40;;;;;;;;;;5026215;28;20043;-66
2022/09/17 15:01:47;;;;;;;12.63;3.60;;;;;;;;;;5007441;28;20115;-66